RYR6MQ LIME-LGIR
Flight info
| Callsign | RYR6MQ |
|---|---|
| Flight time | 2h 15m |
| Altitude | 39000 |
| Route | LOGDI DCT EKDIR DCT LOMED DCT LATAN DCT TRL UM601 MIL UL617 XAVIS |
| Aircraft | B38M/M-SDE1FGHILORVWXY/HB1 |
Departure
| Time | 2026-04-29 16:37 |
|---|---|
| Airport | Il Caravaggio International Airport (LIME) |
Arrival
| Time | 2026-04-29 18:52 |
|---|---|
| Airport | Heraklion International Nikos Kazantzakis Airport (LGIR) |
| Time | Latitude | Longitude | Altitude | Speed | Heading |
|---|---|---|---|---|---|
| 2026-04-29 16:12 | 45.66776 | 9.69342 | 790 ft | 0 kts | 195° |
| 2026-04-29 16:30 | 45.66775 | 9.69342 | 790 ft | 1 kts | 195° |
| 2026-04-29 16:30 | 45.66751 | 9.69326 | 790 ft | 5 kts | 231° |
| 2026-04-29 16:31 | 45.66755 | 9.69272 | 790 ft | 6 kts | 285° |
| 2026-04-29 16:31 | 45.66768 | 9.69201 | 790 ft | 8 kts | 285° |
| 2026-04-29 16:31 | 45.66784 | 9.69111 | 790 ft | 10 kts | 285° |
| 2026-04-29 16:31 | 45.66824 | 9.69023 | 790 ft | 8 kts | 328° |
| 2026-04-29 16:32 | 45.66881 | 9.68983 | 790 ft | 10 kts | 357° |
| 2026-04-29 16:32 | 45.66907 | 9.68970 | 790 ft | 4 kts | 315° |
| 2026-04-29 16:32 | 45.66932 | 9.68892 | 790 ft | 14 kts | 312° |
| 2026-04-29 16:32 | 45.67000 | 9.68890 | 789 ft | 4 kts | 17° |
| 2026-04-29 16:33 | 45.67003 | 9.68891 | 789 ft | 0 kts | 15° |
| 2026-04-29 16:35 | 45.67004 | 9.68891 | 789 ft | 1 kts | 15° |
| 2026-04-29 16:35 | 45.67046 | 9.68908 | 789 ft | 13 kts | 15° |
| 2026-04-29 16:35 | 45.67106 | 9.68942 | 789 ft | 1 kts | 72° |
| 2026-04-29 16:36 | 45.67104 | 9.68959 | 789 ft | 1 kts | 102° |
| 2026-04-29 16:36 | 45.67102 | 9.68968 | 789 ft | 1 kts | 102° |
| 2026-04-29 16:36 | 45.67099 | 9.68992 | 789 ft | 4 kts | 102° |
| 2026-04-29 16:36 | 45.67086 | 9.69060 | 789 ft | 20 kts | 105° |
| 2026-04-29 16:37 | 45.66984 | 9.69621 | 790 ft | 97 kts | 105° |
| 2026-04-29 16:37 | 45.66758 | 9.70861 | 808 ft | 156 kts | 102° |
| 2026-04-29 16:37 | 45.66463 | 9.72413 | 1466 ft | 163 kts | 106° |
| 2026-04-29 16:37 | 45.66249 | 9.73460 | 1996 ft | 169 kts | 107° |
| 2026-04-29 16:38 | 45.65418 | 9.75404 | 2884 ft | 185 kts | 142° |
| 2026-04-29 16:38 | 45.64317 | 9.76526 | 3438 ft | 208 kts | 144° |
| 2026-04-29 16:38 | 45.62999 | 9.77659 | 3925 ft | 235 kts | 163° |
| 2026-04-29 16:38 | 45.61440 | 9.77730 | 5046 ft | 227 kts | 193° |
| 2026-04-29 16:39 | 45.60012 | 9.76715 | 5921 ft | 236 kts | 223° |
| 2026-04-29 16:39 | 45.58981 | 9.74895 | 6856 ft | 238 kts | 233° |
| 2026-04-29 16:39 | 45.57970 | 9.72991 | 7749 ft | 243 kts | 233° |
| 2026-04-29 16:39 | 45.56947 | 9.71053 | 8648 ft | 246 kts | 234° |
| 2026-04-29 16:40 | 45.55911 | 9.69077 | 9541 ft | 251 kts | 234° |
| 2026-04-29 16:40 | 45.54839 | 9.67086 | 10406 ft | 255 kts | 227° |
| 2026-04-29 16:40 | 45.53355 | 9.65709 | 11211 ft | 259 kts | 199° |
| 2026-04-29 16:40 | 45.51566 | 9.65212 | 11969 ft | 266 kts | 190° |
| 2026-04-29 16:41 | 45.49719 | 9.64816 | 12741 ft | 270 kts | 189° |
| 2026-04-29 16:41 | 45.47874 | 9.64433 | 13535 ft | 274 kts | 189° |
| 2026-04-29 16:41 | 45.45979 | 9.64049 | 14253 ft | 278 kts | 189° |
| 2026-04-29 16:41 | 45.44049 | 9.63667 | 14950 ft | 281 kts | 189° |
| 2026-04-29 16:42 | 45.42094 | 9.63285 | 15669 ft | 284 kts | 189° |
| 2026-04-29 16:42 | 45.40130 | 9.62903 | 16362 ft | 288 kts | 190° |
| 2026-04-29 16:42 | 45.38125 | 9.62567 | 16928 ft | 296 kts | 183° |
| 2026-04-29 16:42 | 45.36033 | 9.63115 | 17175 ft | 318 kts | 157° |
| 2026-04-29 16:43 | 45.34079 | 9.64762 | 17413 ft | 336 kts | 147° |
| 2026-04-29 16:43 | 45.32058 | 9.66618 | 17602 ft | 355 kts | 148° |
| 2026-04-29 16:43 | 45.29954 | 9.68550 | 17804 ft | 372 kts | 148° |
| 2026-04-29 16:43 | 45.27748 | 9.70582 | 18160 ft | 383 kts | 148° |
| 2026-04-29 16:44 | 45.25505 | 9.72650 | 18744 ft | 385 kts | 148° |
| 2026-04-29 16:44 | 45.23245 | 9.74733 | 19258 ft | 389 kts | 148° |
| 2026-04-29 16:44 | 45.20975 | 9.76824 | 19779 ft | 392 kts | 148° |
| 2026-04-29 16:44 | 45.18676 | 9.78940 | 20310 ft | 395 kts | 148° |
| 2026-04-29 16:45 | 45.16360 | 9.81069 | 20833 ft | 398 kts | 148° |
| 2026-04-29 16:45 | 45.14028 | 9.83211 | 21350 ft | 401 kts | 148° |
| 2026-04-29 16:45 | 45.11677 | 9.85368 | 21864 ft | 405 kts | 148° |
| 2026-04-29 16:45 | 45.09299 | 9.87548 | 22373 ft | 408 kts | 148° |
| 2026-04-29 16:46 | 45.06942 | 9.89707 | 22898 ft | 411 kts | 148° |
| 2026-04-29 16:46 | 45.04530 | 9.91914 | 23412 ft | 414 kts | 148° |
| 2026-04-29 16:46 | 45.02101 | 9.94134 | 23862 ft | 417 kts | 148° |
| 2026-04-29 16:46 | 44.99621 | 9.96289 | 24274 ft | 420 kts | 151° |
| 2026-04-29 16:47 | 44.97087 | 9.98361 | 24722 ft | 423 kts | 151° |
| 2026-04-29 16:47 | 44.94536 | 10.00465 | 25151 ft | 425 kts | 150° |
| 2026-04-29 16:47 | 44.91979 | 10.02579 | 25579 ft | 428 kts | 150° |
| 2026-04-29 16:47 | 44.89403 | 10.04709 | 25999 ft | 431 kts | 150° |
| 2026-04-29 16:48 | 44.86839 | 10.06827 | 26406 ft | 434 kts | 150° |
| 2026-04-29 16:48 | 44.84232 | 10.08979 | 26813 ft | 436 kts | 150° |
| 2026-04-29 16:48 | 44.81600 | 10.11149 | 27205 ft | 439 kts | 150° |
| 2026-04-29 16:48 | 44.78956 | 10.13328 | 27599 ft | 442 kts | 150° |
| 2026-04-29 16:49 | 44.76296 | 10.15516 | 27982 ft | 444 kts | 150° |
| 2026-04-29 16:49 | 44.73625 | 10.17712 | 28356 ft | 447 kts | 150° |
| 2026-04-29 16:49 | 44.70971 | 10.20012 | 28735 ft | 449 kts | 144° |
| 2026-04-29 16:49 | 44.68473 | 10.22675 | 29113 ft | 452 kts | 143° |
| 2026-04-29 16:50 | 44.65935 | 10.25301 | 29469 ft | 454 kts | 144° |
| 2026-04-29 16:50 | 44.63407 | 10.27885 | 29848 ft | 456 kts | 144° |
| 2026-04-29 16:50 | 44.60828 | 10.30503 | 30202 ft | 459 kts | 144° |
| 2026-04-29 16:50 | 44.58230 | 10.33132 | 30509 ft | 461 kts | 144° |
| 2026-04-29 16:51 | 44.55625 | 10.35764 | 30836 ft | 463 kts | 144° |
| 2026-04-29 16:51 | 44.53014 | 10.38399 | 31146 ft | 465 kts | 144° |
| 2026-04-29 16:51 | 44.50380 | 10.41054 | 31450 ft | 467 kts | 144° |
| 2026-04-29 16:51 | 44.47742 | 10.43711 | 31785 ft | 468 kts | 144° |
| 2026-04-29 16:52 | 44.45087 | 10.46380 | 32082 ft | 471 kts | 144° |
| 2026-04-29 16:52 | 44.42424 | 10.49056 | 32373 ft | 473 kts | 144° |
| 2026-04-29 16:52 | 44.39745 | 10.51743 | 32661 ft | 475 kts | 144° |
| 2026-04-29 16:52 | 44.37094 | 10.54400 | 33002 ft | 475 kts | 144° |
| 2026-04-29 16:53 | 44.34415 | 10.57082 | 33414 ft | 474 kts | 144° |
| 2026-04-29 16:53 | 44.31738 | 10.59759 | 33816 ft | 473 kts | 144° |
| 2026-04-29 16:53 | 44.29068 | 10.62426 | 34200 ft | 472 kts | 144° |
| 2026-04-29 16:53 | 44.26398 | 10.65089 | 34535 ft | 471 kts | 144° |
| 2026-04-29 16:54 | 44.23736 | 10.67743 | 34861 ft | 470 kts | 144° |
| 2026-04-29 16:54 | 44.21098 | 10.70438 | 35167 ft | 469 kts | 139° |
| 2026-04-29 16:54 | 44.18886 | 10.73737 | 35485 ft | 466 kts | 128° |
| 2026-04-29 16:54 | 44.16811 | 10.77151 | 35727 ft | 467 kts | 130° |
| 2026-04-29 16:55 | 44.14702 | 10.80593 | 35985 ft | 467 kts | 130° |
| 2026-04-29 16:55 | 44.12605 | 10.84045 | 36245 ft | 467 kts | 129° |
| 2026-04-29 16:55 | 44.10517 | 10.87490 | 36500 ft | 466 kts | 129° |
| 2026-04-29 16:55 | 44.08422 | 10.90947 | 36740 ft | 466 kts | 129° |
| 2026-04-29 16:56 | 44.06336 | 10.94385 | 36980 ft | 466 kts | 130° |
| 2026-04-29 16:56 | 44.04245 | 10.97829 | 37197 ft | 465 kts | 130° |
| 2026-04-29 16:56 | 44.02256 | 11.01372 | 37390 ft | 465 kts | 123° |
| 2026-04-29 16:56 | 44.00417 | 11.05061 | 37626 ft | 464 kts | 124° |
| 2026-04-29 16:57 | 43.98574 | 11.08669 | 37815 ft | 464 kts | 125° |
| 2026-04-29 16:57 | 43.96697 | 11.12308 | 38003 ft | 464 kts | 125° |
| 2026-04-29 16:57 | 43.94808 | 11.15951 | 38196 ft | 464 kts | 125° |
| 2026-04-29 16:57 | 43.92921 | 11.19585 | 38376 ft | 464 kts | 125° |
| 2026-04-29 16:58 | 43.91034 | 11.23213 | 38575 ft | 464 kts | 125° |
| 2026-04-29 16:58 | 43.89144 | 11.26842 | 38744 ft | 464 kts | 125° |
| 2026-04-29 16:58 | 43.87259 | 11.30457 | 38872 ft | 464 kts | 125° |
| 2026-04-29 16:58 | 43.85368 | 11.34079 | 38981 ft | 464 kts | 125° |
| 2026-04-29 16:59 | 43.81597 | 11.41290 | 39002 ft | 465 kts | 126° |
| 2026-04-29 16:59 | 43.77801 | 11.48528 | 39007 ft | 464 kts | 126° |
| 2026-04-29 17:00 | 43.73998 | 11.55763 | 39026 ft | 464 kts | 126° |
| 2026-04-29 17:00 | 43.70200 | 11.62973 | 39026 ft | 464 kts | 126° |
| 2026-04-29 17:01 | 43.66395 | 11.70174 | 39027 ft | 464 kts | 126° |
| 2026-04-29 17:01 | 43.62578 | 11.77382 | 39030 ft | 465 kts | 126° |
| 2026-04-29 17:02 | 43.58781 | 11.84536 | 39028 ft | 464 kts | 126° |
| 2026-04-29 17:02 | 43.54964 | 11.91709 | 39026 ft | 464 kts | 126° |
| 2026-04-29 17:03 | 43.51134 | 11.98888 | 39029 ft | 465 kts | 126° |
| 2026-04-29 17:03 | 43.47328 | 12.06007 | 39026 ft | 465 kts | 126° |
| 2026-04-29 17:04 | 43.43491 | 12.13164 | 39024 ft | 465 kts | 126° |
| 2026-04-29 17:04 | 43.39647 | 12.20319 | 39023 ft | 465 kts | 126° |
| 2026-04-29 17:05 | 43.35797 | 12.27465 | 39025 ft | 465 kts | 126° |
| 2026-04-29 17:05 | 43.31945 | 12.34600 | 39035 ft | 465 kts | 126° |
| 2026-04-29 17:06 | 43.28113 | 12.41679 | 39024 ft | 465 kts | 126° |
| 2026-04-29 17:06 | 43.24247 | 12.48803 | 39022 ft | 465 kts | 126° |
| 2026-04-29 17:07 | 43.21036 | 12.54709 | 39020 ft | 465 kts | 126° |
| 2026-04-29 17:07 | 43.16508 | 12.63016 | 39022 ft | 465 kts | 126° |
| 2026-04-29 17:08 | 43.12658 | 12.70061 | 39021 ft | 465 kts | 126° |
| 2026-04-29 17:08 | 43.08778 | 12.77144 | 39020 ft | 465 kts | 126° |
| 2026-04-29 17:09 | 43.04884 | 12.84236 | 39022 ft | 466 kts | 126° |
| 2026-04-29 17:09 | 43.00988 | 12.91314 | 39031 ft | 466 kts | 126° |
| 2026-04-29 17:10 | 42.97090 | 12.98379 | 39035 ft | 466 kts | 127° |
| 2026-04-29 17:10 | 42.93208 | 13.05400 | 39040 ft | 466 kts | 127° |
| 2026-04-29 17:11 | 42.89302 | 13.12445 | 39047 ft | 466 kts | 127° |
| 2026-04-29 17:11 | 42.85389 | 13.19487 | 39041 ft | 466 kts | 127° |
| 2026-04-29 17:12 | 42.81464 | 13.26533 | 39047 ft | 467 kts | 127° |
| 2026-04-29 17:12 | 42.78209 | 13.32364 | 39059 ft | 466 kts | 127° |
| 2026-04-29 17:13 | 42.73633 | 13.40543 | 39042 ft | 467 kts | 127° |
| 2026-04-29 17:13 | 42.69699 | 13.47556 | 39041 ft | 467 kts | 127° |
| 2026-04-29 17:14 | 42.65756 | 13.54570 | 39047 ft | 467 kts | 127° |
| 2026-04-29 17:14 | 42.61804 | 13.61581 | 39040 ft | 467 kts | 127° |
| 2026-04-29 17:15 | 42.57875 | 13.68536 | 39039 ft | 467 kts | 127° |
| 2026-04-29 17:15 | 42.53917 | 13.75525 | 39035 ft | 467 kts | 127° |
| 2026-04-29 17:16 | 42.49956 | 13.82506 | 39026 ft | 467 kts | 127° |
| 2026-04-29 17:16 | 42.45987 | 13.89482 | 39026 ft | 468 kts | 127° |
| 2026-04-29 17:17 | 42.42011 | 13.96454 | 39023 ft | 468 kts | 127° |
| 2026-04-29 17:17 | 42.38055 | 14.03376 | 39025 ft | 468 kts | 127° |
| 2026-04-29 17:18 | 42.34070 | 14.10332 | 39022 ft | 468 kts | 128° |
| 2026-04-29 17:18 | 42.30079 | 14.17283 | 39020 ft | 469 kts | 128° |
| 2026-04-29 17:19 | 42.26077 | 14.24236 | 39023 ft | 469 kts | 128° |
| 2026-04-29 17:19 | 42.22098 | 14.31135 | 39017 ft | 469 kts | 128° |
| 2026-04-29 17:20 | 42.18081 | 14.38082 | 39017 ft | 470 kts | 128° |
| 2026-04-29 17:20 | 42.14057 | 14.45023 | 39018 ft | 470 kts | 128° |
| 2026-04-29 17:21 | 42.10028 | 14.51962 | 39015 ft | 471 kts | 128° |
| 2026-04-29 17:21 | 42.05982 | 14.58909 | 39006 ft | 471 kts | 128° |
| 2026-04-29 17:22 | 42.01970 | 14.65785 | 39008 ft | 471 kts | 128° |
| 2026-04-29 17:22 | 41.97913 | 14.72721 | 39005 ft | 471 kts | 128° |
| 2026-04-29 17:23 | 41.93858 | 14.79638 | 39008 ft | 471 kts | 128° |
| 2026-04-29 17:23 | 41.89797 | 14.86549 | 38997 ft | 472 kts | 128° |
| 2026-04-29 17:24 | 41.85757 | 14.93408 | 38969 ft | 472 kts | 130° |
| 2026-04-29 17:24 | 41.81669 | 15.00335 | 39008 ft | 476 kts | 130° |
| 2026-04-29 17:25 | 41.77545 | 15.07303 | 39002 ft | 477 kts | 130° |
| 2026-04-29 17:25 | 41.73429 | 15.14245 | 38994 ft | 476 kts | 130° |
| 2026-04-29 17:26 | 41.69300 | 15.21193 | 39004 ft | 477 kts | 130° |
| 2026-04-29 17:26 | 41.65197 | 15.28080 | 38996 ft | 477 kts | 130° |
| 2026-04-29 17:27 | 41.61061 | 15.35005 | 38997 ft | 477 kts | 130° |
| 2026-04-29 17:27 | 41.56922 | 15.41921 | 38998 ft | 477 kts | 130° |
| 2026-04-29 17:28 | 41.52774 | 15.48837 | 38994 ft | 477 kts | 130° |
| 2026-04-29 17:28 | 41.48650 | 15.55696 | 38994 ft | 477 kts | 130° |
| 2026-04-29 17:29 | 41.44497 | 15.62589 | 38993 ft | 477 kts | 130° |
| 2026-04-29 17:29 | 41.41040 | 15.68315 | 38991 ft | 477 kts | 130° |
| 2026-04-29 17:30 | 41.36175 | 15.76354 | 38995 ft | 477 kts | 130° |
| 2026-04-29 17:30 | 41.32010 | 15.83219 | 38992 ft | 477 kts | 130° |
| 2026-04-29 17:31 | 41.27867 | 15.90031 | 38997 ft | 477 kts | 130° |
| 2026-04-29 17:31 | 41.23694 | 15.96880 | 39001 ft | 477 kts | 131° |
| 2026-04-29 17:32 | 41.19505 | 16.03738 | 39004 ft | 478 kts | 131° |
| 2026-04-29 17:32 | 41.15314 | 16.10584 | 39008 ft | 478 kts | 131° |
| 2026-04-29 17:33 | 41.11144 | 16.17381 | 39007 ft | 478 kts | 131° |
| 2026-04-29 17:33 | 41.06947 | 16.24206 | 39012 ft | 478 kts | 131° |
| 2026-04-29 17:34 | 41.02741 | 16.31031 | 39018 ft | 478 kts | 131° |
| 2026-04-29 17:34 | 40.98535 | 16.37842 | 39017 ft | 478 kts | 131° |
| 2026-04-29 17:35 | 40.92223 | 16.48033 | 39024 ft | 477 kts | 131° |
| 2026-04-29 17:36 | 40.88035 | 16.54774 | 39031 ft | 477 kts | 131° |
| 2026-04-29 17:36 | 40.83819 | 16.61549 | 39034 ft | 477 kts | 131° |
| 2026-04-29 17:37 | 40.79604 | 16.68306 | 39035 ft | 477 kts | 131° |
| 2026-04-29 17:37 | 40.75374 | 16.75070 | 39022 ft | 477 kts | 131° |
| 2026-04-29 17:38 | 40.71175 | 16.81771 | 39023 ft | 478 kts | 131° |
| 2026-04-29 17:38 | 40.66938 | 16.88518 | 39024 ft | 477 kts | 131° |
| 2026-04-29 17:39 | 40.62700 | 16.95253 | 39026 ft | 478 kts | 131° |
| 2026-04-29 17:39 | 40.58459 | 17.01977 | 39029 ft | 478 kts | 131° |
| 2026-04-29 17:40 | 40.54208 | 17.08702 | 39032 ft | 478 kts | 131° |
| 2026-04-29 17:40 | 40.49988 | 17.15364 | 39029 ft | 478 kts | 131° |
| 2026-04-29 17:41 | 40.45731 | 17.22069 | 39026 ft | 478 kts | 131° |
| 2026-04-29 17:41 | 40.41478 | 17.28754 | 39021 ft | 478 kts | 132° |
| 2026-04-29 17:42 | 40.37204 | 17.35455 | 39023 ft | 478 kts | 132° |
| 2026-04-29 17:42 | 40.32966 | 17.42089 | 39024 ft | 478 kts | 132° |
| 2026-04-29 17:43 | 40.28694 | 17.48759 | 39024 ft | 478 kts | 132° |
| 2026-04-29 17:43 | 40.24411 | 17.55433 | 39029 ft | 478 kts | 132° |
| 2026-04-29 17:44 | 40.20128 | 17.62093 | 39032 ft | 478 kts | 132° |
| 2026-04-29 17:44 | 40.15872 | 17.68695 | 39029 ft | 478 kts | 132° |
| 2026-04-29 17:45 | 40.11578 | 17.75343 | 39033 ft | 478 kts | 132° |
| 2026-04-29 17:45 | 40.07282 | 17.81979 | 39034 ft | 479 kts | 132° |
| 2026-04-29 17:46 | 40.02979 | 17.88614 | 39034 ft | 479 kts | 132° |
| 2026-04-29 17:46 | 39.98697 | 17.95201 | 39034 ft | 479 kts | 132° |
| 2026-04-29 17:47 | 39.94380 | 18.01827 | 39036 ft | 479 kts | 132° |
| 2026-04-29 17:47 | 39.90060 | 18.08444 | 39037 ft | 480 kts | 132° |
| 2026-04-29 17:48 | 39.85737 | 18.15051 | 39041 ft | 479 kts | 132° |
| 2026-04-29 17:48 | 39.81410 | 18.21650 | 39042 ft | 479 kts | 132° |
| 2026-04-29 17:49 | 39.77108 | 18.28199 | 39046 ft | 480 kts | 132° |
| 2026-04-29 17:49 | 39.72770 | 18.34791 | 39046 ft | 480 kts | 132° |
| 2026-04-29 17:50 | 39.68430 | 18.41372 | 39047 ft | 480 kts | 132° |
| 2026-04-29 17:50 | 39.64114 | 18.47903 | 39055 ft | 480 kts | 132° |
| 2026-04-29 17:51 | 39.59765 | 18.54471 | 39054 ft | 480 kts | 133° |
| 2026-04-29 17:51 | 39.55414 | 18.61028 | 39054 ft | 480 kts | 133° |
| 2026-04-29 17:52 | 39.51047 | 18.67598 | 39058 ft | 480 kts | 133° |
| 2026-04-29 17:52 | 39.46710 | 18.74106 | 39057 ft | 481 kts | 133° |
| 2026-04-29 17:53 | 39.42338 | 18.80655 | 39064 ft | 481 kts | 133° |
| 2026-04-29 17:53 | 39.38703 | 18.86090 | 39060 ft | 481 kts | 133° |
| 2026-04-29 17:54 | 39.34325 | 18.92623 | 39065 ft | 481 kts | 133° |
| 2026-04-29 17:54 | 39.29945 | 18.99158 | 39063 ft | 482 kts | 131° |
| 2026-04-29 17:55 | 39.26023 | 19.06186 | 39067 ft | 483 kts | 127° |
| 2026-04-29 17:55 | 39.22207 | 19.13245 | 39065 ft | 483 kts | 126° |
| 2026-04-29 17:56 | 39.18359 | 19.20370 | 39067 ft | 484 kts | 126° |
| 2026-04-29 17:56 | 39.14509 | 19.27485 | 39065 ft | 484 kts | 127° |
| 2026-04-29 17:57 | 39.10654 | 19.34594 | 39069 ft | 484 kts | 127° |
| 2026-04-29 17:57 | 39.06792 | 19.41701 | 39068 ft | 484 kts | 127° |
| 2026-04-29 17:58 | 39.02951 | 19.48752 | 39071 ft | 485 kts | 127° |
| 2026-04-29 17:58 | 38.99074 | 19.55855 | 39073 ft | 486 kts | 127° |
| 2026-04-29 17:59 | 38.95187 | 19.62960 | 39076 ft | 486 kts | 127° |
| 2026-04-29 17:59 | 38.91299 | 19.70050 | 39077 ft | 486 kts | 127° |
| 2026-04-29 18:00 | 38.87426 | 19.77100 | 39075 ft | 486 kts | 127° |
| 2026-04-29 18:00 | 38.83524 | 19.84185 | 39074 ft | 486 kts | 127° |
| 2026-04-29 18:01 | 38.79622 | 19.91256 | 39075 ft | 487 kts | 127° |
| 2026-04-29 18:01 | 38.75702 | 19.98342 | 39075 ft | 487 kts | 127° |
| 2026-04-29 18:02 | 38.71803 | 20.05376 | 39074 ft | 487 kts | 127° |
| 2026-04-29 18:02 | 38.67878 | 20.12443 | 39075 ft | 487 kts | 127° |
| 2026-04-29 18:03 | 38.63940 | 20.19515 | 39072 ft | 488 kts | 127° |
| 2026-04-29 18:03 | 38.60000 | 20.26578 | 39074 ft | 488 kts | 127° |
| 2026-04-29 18:04 | 38.56086 | 20.33577 | 39071 ft | 488 kts | 127° |
| 2026-04-29 18:04 | 38.52138 | 20.40622 | 39073 ft | 488 kts | 127° |
| 2026-04-29 18:05 | 38.48177 | 20.47675 | 39085 ft | 489 kts | 127° |
| 2026-04-29 18:05 | 38.44215 | 20.54716 | 39076 ft | 489 kts | 128° |
| 2026-04-29 18:06 | 38.40270 | 20.61709 | 39067 ft | 488 kts | 128° |
| 2026-04-29 18:06 | 38.36296 | 20.68741 | 39072 ft | 489 kts | 128° |
| 2026-04-29 18:07 | 38.32319 | 20.75761 | 39072 ft | 489 kts | 128° |
| 2026-04-29 18:07 | 38.28330 | 20.82787 | 39062 ft | 489 kts | 128° |
| 2026-04-29 18:08 | 38.24334 | 20.89812 | 39073 ft | 490 kts | 128° |
| 2026-04-29 18:08 | 38.20361 | 20.96780 | 39071 ft | 490 kts | 128° |
| 2026-04-29 18:09 | 38.16360 | 21.03782 | 39075 ft | 490 kts | 128° |
| 2026-04-29 18:09 | 38.12342 | 21.10803 | 39068 ft | 491 kts | 128° |
| 2026-04-29 18:10 | 38.08326 | 21.17801 | 39069 ft | 490 kts | 128° |
| 2026-04-29 18:10 | 38.04336 | 21.24740 | 39080 ft | 490 kts | 128° |
| 2026-04-29 18:11 | 38.00305 | 21.31736 | 39078 ft | 491 kts | 128° |
| 2026-04-29 18:11 | 37.96275 | 21.38716 | 39073 ft | 491 kts | 128° |
| 2026-04-29 18:12 | 37.92239 | 21.45690 | 39080 ft | 491 kts | 128° |
| 2026-04-29 18:12 | 37.88216 | 21.52626 | 39085 ft | 492 kts | 128° |
| 2026-04-29 18:13 | 37.84163 | 21.59601 | 39083 ft | 492 kts | 128° |
| 2026-04-29 18:13 | 37.80105 | 21.66570 | 39085 ft | 492 kts | 128° |
| 2026-04-29 18:14 | 37.76033 | 21.73548 | 39091 ft | 493 kts | 128° |
| 2026-04-29 18:14 | 37.71957 | 21.80518 | 39093 ft | 493 kts | 129° |
| 2026-04-29 18:15 | 37.67901 | 21.87439 | 39106 ft | 494 kts | 129° |
| 2026-04-29 18:15 | 37.63807 | 21.94411 | 39100 ft | 494 kts | 129° |
| 2026-04-29 18:16 | 37.59708 | 22.01375 | 39104 ft | 494 kts | 129° |
| 2026-04-29 18:16 | 37.55607 | 22.08334 | 39102 ft | 494 kts | 129° |
| 2026-04-29 18:17 | 37.51531 | 22.15234 | 39101 ft | 494 kts | 129° |
| 2026-04-29 18:17 | 37.47419 | 22.22182 | 39099 ft | 495 kts | 129° |
| 2026-04-29 18:18 | 37.43302 | 22.29124 | 39098 ft | 495 kts | 129° |
| 2026-04-29 18:18 | 37.39740 | 22.36499 | 39088 ft | 496 kts | 110° |
| 2026-04-29 18:19 | 37.37333 | 22.44591 | 39095 ft | 498 kts | 111° |
| 2026-04-29 18:19 | 37.34941 | 22.52757 | 39091 ft | 498 kts | 110° |
| 2026-04-29 18:20 | 37.32556 | 22.60927 | 39093 ft | 498 kts | 110° |
| 2026-04-29 18:20 | 37.30165 | 22.69099 | 39086 ft | 498 kts | 110° |
| 2026-04-29 18:21 | 37.27772 | 22.77254 | 39079 ft | 498 kts | 111° |
| 2026-04-29 18:21 | 37.25389 | 22.85349 | 39073 ft | 497 kts | 110° |
| 2026-04-29 18:22 | 37.22985 | 22.93493 | 39075 ft | 498 kts | 111° |
| 2026-04-29 18:22 | 37.20576 | 23.01631 | 39068 ft | 498 kts | 111° |
| 2026-04-29 18:23 | 37.18160 | 23.09764 | 39066 ft | 498 kts | 111° |
| 2026-04-29 18:23 | 37.15756 | 23.17837 | 39062 ft | 498 kts | 111° |
| 2026-04-29 18:24 | 37.13331 | 23.25961 | 39064 ft | 498 kts | 111° |
| 2026-04-29 18:24 | 37.10893 | 23.34083 | 39064 ft | 498 kts | 111° |
| 2026-04-29 18:25 | 37.08452 | 23.42197 | 39064 ft | 498 kts | 111° |
| 2026-04-29 18:25 | 37.06008 | 23.50297 | 39064 ft | 498 kts | 111° |
| 2026-04-29 18:26 | 37.03570 | 23.58353 | 39060 ft | 498 kts | 111° |
| 2026-04-29 18:26 | 37.01112 | 23.66450 | 39065 ft | 498 kts | 111° |
| 2026-04-29 18:27 | 36.98648 | 23.74547 | 39067 ft | 498 kts | 111° |
| 2026-04-29 18:27 | 36.96183 | 23.82622 | 39067 ft | 497 kts | 111° |
| 2026-04-29 18:28 | 36.93727 | 23.90646 | 39067 ft | 497 kts | 111° |
| 2026-04-29 18:28 | 36.91252 | 23.98711 | 39070 ft | 497 kts | 111° |
| 2026-04-29 18:29 | 36.88772 | 24.06777 | 39052 ft | 497 kts | 111° |
| 2026-04-29 18:29 | 36.87952 | 24.09437 | 38692 ft | 495 kts | 111° |
| 2026-04-29 18:29 | 36.86282 | 24.14852 | 37225 ft | 503 kts | 111° |
| 2026-04-29 18:29 | 36.85030 | 24.18902 | 36501 ft | 496 kts | 111° |
| 2026-04-29 18:30 | 36.83807 | 24.22855 | 35564 ft | 495 kts | 111° |
| 2026-04-29 18:30 | 36.82563 | 24.26868 | 34629 ft | 494 kts | 111° |
| 2026-04-29 18:30 | 36.81332 | 24.30835 | 33987 ft | 486 kts | 110° |
| 2026-04-29 18:30 | 36.80124 | 24.34722 | 33457 ft | 474 kts | 110° |
| 2026-04-29 18:31 | 36.78944 | 24.38514 | 32978 ft | 466 kts | 110° |
| 2026-04-29 18:31 | 36.77773 | 24.42268 | 32469 ft | 462 kts | 110° |
| 2026-04-29 18:31 | 36.76613 | 24.45989 | 31946 ft | 458 kts | 110° |
| 2026-04-29 18:31 | 36.75418 | 24.49655 | 31390 ft | 456 kts | 116° |
| 2026-04-29 18:32 | 36.73627 | 24.52893 | 30788 ft | 454 kts | 135° |
| 2026-04-29 18:32 | 36.68879 | 24.57899 | 29892 ft | 450 kts | 141° |
| 2026-04-29 18:32 | 36.66473 | 24.60385 | 29315 ft | 451 kts | 141° |
| 2026-04-29 18:33 | 36.64048 | 24.62867 | 28810 ft | 451 kts | 141° |
| 2026-04-29 18:33 | 36.61618 | 24.65345 | 28318 ft | 451 kts | 141° |
| 2026-04-29 18:33 | 36.59189 | 24.67818 | 27832 ft | 452 kts | 141° |
| 2026-04-29 18:33 | 36.56753 | 24.70294 | 27342 ft | 452 kts | 142° |
| 2026-04-29 18:34 | 36.54327 | 24.72760 | 26859 ft | 451 kts | 142° |
| 2026-04-29 18:34 | 36.52715 | 24.74397 | 26532 ft | 451 kts | 142° |
| 2026-04-29 18:34 | 36.49493 | 24.77666 | 25902 ft | 452 kts | 142° |
| 2026-04-29 18:34 | 36.47059 | 24.80132 | 25432 ft | 451 kts | 142° |
| 2026-04-29 18:35 | 36.44583 | 24.82479 | 24803 ft | 444 kts | 149° |
| 2026-04-29 18:35 | 36.41827 | 24.84129 | 24004 ft | 437 kts | 160° |
| 2026-04-29 18:35 | 36.39062 | 24.85614 | 23117 ft | 430 kts | 157° |
| 2026-04-29 18:35 | 36.36352 | 24.87141 | 22055 ft | 425 kts | 156° |
| 2026-04-29 18:36 | 36.33684 | 24.88663 | 21058 ft | 420 kts | 156° |
| 2026-04-29 18:36 | 36.31047 | 24.90175 | 20104 ft | 415 kts | 156° |
| 2026-04-29 18:36 | 36.28469 | 24.91655 | 19203 ft | 411 kts | 156° |
| 2026-04-29 18:36 | 36.25893 | 24.93135 | 18327 ft | 406 kts | 156° |
| 2026-04-29 18:37 | 36.23344 | 24.94598 | 17553 ft | 401 kts | 156° |
| 2026-04-29 18:37 | 36.20832 | 24.96038 | 17114 ft | 396 kts | 156° |
| 2026-04-29 18:37 | 36.18340 | 24.97466 | 16714 ft | 395 kts | 156° |
| 2026-04-29 18:37 | 36.15851 | 24.98892 | 16319 ft | 393 kts | 156° |
| 2026-04-29 18:38 | 36.13374 | 25.00310 | 15927 ft | 391 kts | 156° |
| 2026-04-29 18:38 | 36.10906 | 25.01722 | 15527 ft | 389 kts | 156° |
| 2026-04-29 18:38 | 36.08490 | 25.03103 | 15137 ft | 387 kts | 156° |
| 2026-04-29 18:38 | 36.06052 | 25.04496 | 14745 ft | 385 kts | 156° |
| 2026-04-29 18:39 | 36.03629 | 25.05879 | 14354 ft | 382 kts | 156° |
| 2026-04-29 18:39 | 36.01222 | 25.07252 | 13970 ft | 380 kts | 156° |
| 2026-04-29 18:39 | 35.98831 | 25.08616 | 13541 ft | 378 kts | 156° |
| 2026-04-29 18:39 | 35.96448 | 25.09974 | 13124 ft | 376 kts | 156° |
| 2026-04-29 18:40 | 35.94077 | 25.11323 | 12732 ft | 374 kts | 155° |
| 2026-04-29 18:40 | 35.91718 | 25.12665 | 12349 ft | 372 kts | 155° |
| 2026-04-29 18:40 | 35.89410 | 25.13978 | 11970 ft | 368 kts | 155° |
| 2026-04-29 18:40 | 35.87106 | 25.15287 | 11587 ft | 363 kts | 155° |
| 2026-04-29 18:41 | 35.80341 | 25.19126 | 10483 ft | 351 kts | 155° |
| 2026-04-29 18:41 | 35.78181 | 25.20350 | 10310 ft | 334 kts | 155° |
| 2026-04-29 18:42 | 35.76121 | 25.21515 | 10160 ft | 317 kts | 155° |
| 2026-04-29 18:42 | 35.74147 | 25.22633 | 9854 ft | 308 kts | 154° |
| 2026-04-29 18:42 | 35.72220 | 25.23723 | 9491 ft | 303 kts | 155° |
| 2026-04-29 18:42 | 35.70318 | 25.24799 | 9145 ft | 299 kts | 154° |
| 2026-04-29 18:43 | 35.68464 | 25.25847 | 8789 ft | 297 kts | 154° |
| 2026-04-29 18:43 | 35.66580 | 25.26912 | 8455 ft | 298 kts | 154° |
| 2026-04-29 18:43 | 35.64695 | 25.27977 | 8127 ft | 297 kts | 154° |
| 2026-04-29 18:43 | 35.62824 | 25.29033 | 7815 ft | 296 kts | 154° |
| 2026-04-29 18:44 | 35.60956 | 25.30087 | 7497 ft | 294 kts | 154° |
| 2026-04-29 18:44 | 35.59099 | 25.31134 | 7187 ft | 293 kts | 154° |
| 2026-04-29 18:44 | 35.57254 | 25.32174 | 6881 ft | 292 kts | 154° |
| 2026-04-29 18:44 | 35.55411 | 25.33212 | 6569 ft | 290 kts | 154° |
| 2026-04-29 18:45 | 35.53600 | 25.34232 | 6249 ft | 289 kts | 154° |
| 2026-04-29 18:45 | 35.51776 | 25.35259 | 5925 ft | 288 kts | 154° |
| 2026-04-29 18:45 | 35.49959 | 25.36281 | 5611 ft | 287 kts | 154° |
| 2026-04-29 18:45 | 35.48156 | 25.37295 | 5416 ft | 281 kts | 154° |
| 2026-04-29 18:46 | 35.46408 | 25.38277 | 5279 ft | 272 kts | 154° |
| 2026-04-29 18:46 | 35.44725 | 25.39259 | 5169 ft | 262 kts | 150° |
| 2026-04-29 18:46 | 35.43169 | 25.40330 | 5020 ft | 253 kts | 149° |
| 2026-04-29 18:46 | 35.41650 | 25.41374 | 4866 ft | 250 kts | 149° |
| 2026-04-29 18:47 | 35.40166 | 25.42386 | 4709 ft | 242 kts | 149° |
| 2026-04-29 18:47 | 35.38715 | 25.43363 | 4546 ft | 235 kts | 152° |
| 2026-04-29 18:47 | 35.37152 | 25.43747 | 4228 ft | 231 kts | 188° |
| 2026-04-29 18:47 | 35.35750 | 25.42936 | 3912 ft | 220 kts | 226° |
| 2026-04-29 18:48 | 35.34941 | 25.41436 | 3633 ft | 206 kts | 246° |
| 2026-04-29 18:48 | 35.34329 | 25.39886 | 3370 ft | 202 kts | 246° |
| 2026-04-29 18:48 | 35.33723 | 25.38339 | 3180 ft | 200 kts | 247° |
| 2026-04-29 18:48 | 35.33126 | 25.36802 | 2949 ft | 199 kts | 248° |
| 2026-04-29 18:49 | 35.32869 | 25.35190 | 2641 ft | 191 kts | 275° |
| 2026-04-29 18:49 | 35.32949 | 25.33595 | 2451 ft | 180 kts | 276° |
| 2026-04-29 18:49 | 35.33026 | 25.32142 | 2298 ft | 170 kts | 275° |
| 2026-04-29 18:49 | 35.33094 | 25.30736 | 2150 ft | 160 kts | 276° |
| 2026-04-29 18:50 | 35.33198 | 25.29397 | 1890 ft | 155 kts | 276° |
| 2026-04-29 18:50 | 35.33293 | 25.28097 | 1622 ft | 152 kts | 277° |
| 2026-04-29 18:50 | 35.33393 | 25.26813 | 1338 ft | 151 kts | 276° |
| 2026-04-29 18:50 | 35.33492 | 25.25540 | 1114 ft | 150 kts | 274° |
| 2026-04-29 18:51 | 35.33583 | 25.24266 | 965 ft | 150 kts | 274° |
| 2026-04-29 18:51 | 35.33654 | 25.22993 | 814 ft | 150 kts | 272° |
| 2026-04-29 18:51 | 35.33734 | 25.21729 | 577 ft | 148 kts | 274° |
| 2026-04-29 18:51 | 35.33818 | 25.20499 | 335 ft | 146 kts | 272° |
| 2026-04-29 18:52 | 35.33892 | 25.19253 | 165 ft | 148 kts | 272° |
| 2026-04-29 18:52 | 35.33969 | 25.18040 | 95 ft | 128 kts | 272° |
| 2026-04-29 18:52 | 35.34028 | 25.17245 | 96 ft | 64 kts | 274° |
| 2026-04-29 18:52 | 35.34060 | 25.16772 | 95 ft | 37 kts | 274° |
| 2026-04-29 18:53 | 35.34038 | 25.16655 | 96 ft | 5 kts | 193° |
| 2026-04-29 18:53 | 35.34000 | 25.16683 | 93 ft | 8 kts | 116° |
| 2026-04-29 18:53 | 35.33967 | 25.16766 | 94 ft | 13 kts | 116° |
| 2026-04-29 18:53 | 35.33957 | 25.16866 | 93 ft | 13 kts | 92° |
| 2026-04-29 18:54 | 35.33948 | 25.16985 | 92 ft | 15 kts | 97° |
| 2026-04-29 18:54 | 35.33937 | 25.17124 | 93 ft | 17 kts | 93° |
| 2026-04-29 18:54 | 35.33928 | 25.17276 | 93 ft | 17 kts | 96° |
| 2026-04-29 18:54 | 35.33916 | 25.17433 | 93 ft | 20 kts | 95° |
| 2026-04-29 18:55 | 35.33903 | 25.17601 | 95 ft | 14 kts | 111° |
| 2026-04-29 18:55 | 35.33832 | 25.17620 | 93 ft | 12 kts | 185° |
| 2026-04-29 18:55 | 35.33794 | 25.17611 | 93 ft | 2 kts | 230° |
| 2026-04-29 18:55 | 35.33796 | 25.17562 | 94 ft | 5 kts | 278° |
| 2026-04-29 18:56 | 35.33801 | 25.17551 | 94 ft | 3 kts | 314° |
| 2026-04-29 18:56 | 35.33812 | 25.17539 | 93 ft | 1 kts | 318° |